sensor_id;sensor_type;location;lat;lon;timestamp;P1;durP1;ratioP1;P2;durP2;ratioP2
57299;SDS011;43148;50.966;18.198;2024-01-11T00:02:51;278.30;;;151.30;;
57299;SDS011;43148;50.966;18.198;2024-01-11T00:14:00;294.30;;;157.10;;
57299;SDS011;43148;50.966;18.198;2024-01-11T00:36:34;297.60;;;159.70;;
57299;SDS011;43148;50.966;18.198;2024-01-11T00:46:42;281.10;;;155.60;;
57299;SDS011;43148;50.966;18.198;2024-01-11T00:57:11;279.40;;;149.50;;
57299;SDS011;43148;50.966;18.198;2024-01-11T01:07:35;280.50;;;159.20;;
57299;SDS011;43148;50.966;18.198;2024-01-11T01:17:30;243.20;;;129.30;;
57299;SDS011;43148;50.966;18.198;2024-01-11T01:27:54;286.30;;;156.30;;
57299;SDS011;43148;50.966;18.198;2024-01-11T01:39:51;272.20;;;149.40;;
57299;SDS011;43148;50.966;18.198;2024-01-11T01:50:11;222.40;;;127.70;;
57299;SDS011;43148;50.966;18.198;2024-01-11T02:00:15;250.90;;;143.50;;
57299;SDS011;43148;50.966;18.198;2024-01-11T02:10:43;247.50;;;144.80;;
57299;SDS011;43148;50.966;18.198;2024-01-11T02:21:39;315.30;;;170.40;;
57299;SDS011;43148;50.966;18.198;2024-01-11T02:43:27;268.50;;;141.50;;
57299;SDS011;43148;50.966;18.198;2024-01-11T02:55:10;295.10;;;166.30;;
57299;SDS011;43148;50.966;18.198;2024-01-11T03:05:51;296.40;;;165.80;;
57299;SDS011;43148;50.966;18.198;2024-01-11T03:16:37;339.30;;;177.40;;
57299;SDS011;43148;50.966;18.198;2024-01-11T03:26:40;336.80;;;176.30;;
57299;SDS011;43148;50.966;18.198;2024-01-11T03:37:18;298.80;;;155.00;;
57299;SDS011;43148;50.966;18.198;2024-01-11T03:48:36;276.30;;;154.10;;
57299;SDS011;43148;50.966;18.198;2024-01-11T03:58:30;158.80;;;87.20;;
57299;SDS011;43148;50.966;18.198;2024-01-11T04:09:02;323.40;;;182.50;;
57299;SDS011;43148;50.966;18.198;2024-01-11T04:19:16;338.10;;;178.20;;
57299;SDS011;43148;50.966;18.198;2024-01-11T04:30:41;298.30;;;157.70;;
57299;SDS011;43148;50.966;18.198;2024-01-11T04:40:56;329.10;;;181.50;;
57299;SDS011;43148;50.966;18.198;2024-01-11T04:50:55;303.00;;;159.40;;
57299;SDS011;43148;50.966;18.198;2024-01-11T05:02:01;318.40;;;178.00;;
57299;SDS011;43148;50.966;18.198;2024-01-11T05:12:32;303.90;;;152.90;;
57299;SDS011;43148;50.966;18.198;2024-01-11T05:15:16;335.50;;;197.70;;
57299;SDS011;43148;50.966;18.198;2024-01-11T05:25:17;289.30;;;142.80;;
57299;SDS011;43148;50.966;18.198;2024-01-11T05:36:34;281.10;;;152.00;;
57299;SDS011;43148;50.966;18.198;2024-01-11T05:46:44;287.60;;;152.40;;
57299;SDS011;43148;50.966;18.198;2024-01-11T05:57:18;221.30;;;119.30;;
57299;SDS011;43148;50.966;18.198;2024-01-11T06:08:43;252.50;;;140.40;;
57299;SDS011;43148;50.966;18.198;2024-01-11T06:21:08;276.40;;;152.30;;
57299;SDS011;43148;50.966;18.198;2024-01-11T06:43:10;238.70;;;120.40;;
57299;SDS011;43148;50.966;18.198;2024-01-11T06:53:40;222.80;;;125.50;;
57299;SDS011;43148;50.966;18.198;2024-01-11T07:04:48;210.80;;;117.20;;
57299;SDS011;43148;50.966;18.198;2024-01-11T07:14:46;174.00;;;78.10;;
57299;SDS011;43148;50.966;18.198;2024-01-11T07:24:49;213.10;;;118.80;;
57299;SDS011;43148;50.966;18.198;2024-01-11T07:34:56;154.40;;;67.90;;
57299;SDS011;43148;50.966;18.198;2024-01-11T07:44:47;204.40;;;112.80;;
57299;SDS011;43148;50.966;18.198;2024-01-11T07:54:36;205.40;;;113.00;;
57299;SDS011;43148;50.966;18.198;2024-01-11T08:06:39;213.70;;;122.20;;
57299;SDS011;43148;50.966;18.198;2024-01-11T08:16:34;200.30;;;114.10;;
57299;SDS011;43148;50.966;18.198;2024-01-11T08:26:25;161.70;;;96.60;;
57299;SDS011;43148;50.966;18.198;2024-01-11T08:36:31;161.90;;;94.10;;
57299;SDS011;43148;50.966;18.198;2024-01-11T08:46:25;142.70;;;85.60;;
57299;SDS011;43148;50.966;18.198;2024-01-11T08:56:12;152.60;;;90.90;;
57299;SDS011;43148;50.966;18.198;2024-01-11T09:05:59;158.70;;;91.70;;
57299;SDS011;43148;50.966;18.198;2024-01-11T09:15:57;103.30;;;60.30;;
57299;SDS011;43148;50.966;18.198;2024-01-11T09:25:56;119.80;;;67.40;;
57299;SDS011;43148;50.966;18.198;2024-01-11T09:43:41;80.50;;;50.90;;
57299;SDS011;43148;50.966;18.198;2024-01-11T09:53:40;75.70;;;46.20;;
57299;SDS011;43148;50.966;18.198;2024-01-11T10:03:32;76.90;;;49.10;;
57299;SDS011;43148;50.966;18.198;2024-01-11T10:21:11;55.70;;;37.30;;
57299;SDS011;43148;50.966;18.198;2024-01-11T10:31:04;62.80;;;38.60;;
57299;SDS011;43148;50.966;18.198;2024-01-11T10:42:32;64.80;;;36.60;;
57299;SDS011;43148;50.966;18.198;2024-01-11T10:59:32;44.80;;;32.60;;
57299;SDS011;43148;50.966;18.198;2024-01-11T11:09:38;56.20;;;37.70;;
57299;SDS011;43148;50.966;18.198;2024-01-11T11:19:33;53.20;;;39.80;;
57299;SDS011;43148;50.966;18.198;2024-01-11T11:29:46;64.20;;;38.50;;
57299;SDS011;43148;50.966;18.198;2024-01-11T11:39:35;46.80;;;37.90;;
57299;SDS011;43148;50.966;18.198;2024-01-11T11:49:52;25.40;;;15.50;;
57299;SDS011;43148;50.966;18.198;2024-01-11T11:59:58;42.30;;;30.60;;
57299;SDS011;43148;50.966;18.198;2024-01-11T12:10:11;32.40;;;24.60;;
57299;SDS011;43148;50.966;18.198;2024-01-11T12:20:01;23.40;;;20.90;;
57299;SDS011;43148;50.966;18.198;2024-01-11T12:29:45;39.80;;;28.40;;
57299;SDS011;43148;50.966;18.198;2024-01-11T12:39:31;28.30;;;24.30;;
57299;SDS011;43148;50.966;18.198;2024-01-11T12:49:23;32.90;;;26.40;;
57299;SDS011;43148;50.966;18.198;2024-01-11T12:59:10;35.90;;;29.40;;
57299;SDS011;43148;50.966;18.198;2024-01-11T13:09:00;35.00;;;23.40;;
57299;SDS011;43148;50.966;18.198;2024-01-11T13:18:48;32.80;;;28.40;;
57299;SDS011;43148;50.966;18.198;2024-01-11T13:28:34;18.20;;;15.50;;
57299;SDS011;43148;50.966;18.198;2024-01-11T13:38:18;36.10;;;27.50;;
57299;SDS011;43148;50.966;18.198;2024-01-11T13:48:04;46.10;;;31.10;;
57299;SDS011;43148;50.966;18.198;2024-01-11T13:57:48;37.30;;;27.40;;
57299;SDS011;43148;50.966;18.198;2024-01-11T14:07:41;28.70;;;24.90;;
57299;SDS011;43148;50.966;18.198;2024-01-11T14:17:30;35.40;;;28.10;;
57299;SDS011;43148;50.966;18.198;2024-01-11T14:27:32;36.40;;;27.20;;
57299;SDS011;43148;50.966;18.198;2024-01-11T14:37:23;33.10;;;26.20;;
57299;SDS011;43148;50.966;18.198;2024-01-11T14:44:55;46.40;;;38.30;;
57299;SDS011;43148;50.966;18.198;2024-01-11T14:54:41;21.40;;;19.10;;
57299;SDS011;43148;50.966;18.198;2024-01-11T15:04:28;27.40;;;24.60;;
57299;SDS011;43148;50.966;18.198;2024-01-11T15:14:35;28.20;;;25.00;;
57299;SDS011;43148;50.966;18.198;2024-01-11T15:24:21;27.20;;;24.40;;
57299;SDS011;43148;50.966;18.198;2024-01-11T15:34:45;32.10;;;24.10;;
57299;SDS011;43148;50.966;18.198;2024-01-11T15:44:37;32.00;;;24.20;;
57299;SDS011;43148;50.966;18.198;2024-01-11T15:54:34;44.30;;;36.20;;
57299;SDS011;43148;50.966;18.198;2024-01-11T16:04:31;16.00;;;14.60;;
57299;SDS011;43148;50.966;18.198;2024-01-11T16:14:22;33.00;;;29.60;;
57299;SDS011;43148;50.966;18.198;2024-01-11T16:24:22;37.80;;;28.10;;
57299;SDS011;43148;50.966;18.198;2024-01-11T16:34:11;32.60;;;24.00;;
57299;SDS011;43148;50.966;18.198;2024-01-11T16:44:01;30.70;;;25.30;;
57299;SDS011;43148;50.966;18.198;2024-01-11T16:53:50;29.90;;;24.10;;
57299;SDS011;43148;50.966;18.198;2024-01-11T17:03:38;34.00;;;25.80;;
57299;SDS011;43148;50.966;18.198;2024-01-11T17:13:29;30.00;;;26.10;;
57299;SDS011;43148;50.966;18.198;2024-01-11T17:23:27;12.50;;;8.60;;
57299;SDS011;43148;50.966;18.198;2024-01-11T17:33:24;45.90;;;31.00;;
57299;SDS011;43148;50.966;18.198;2024-01-11T17:43:15;36.20;;;28.60;;
57299;SDS011;43148;50.966;18.198;2024-01-11T17:53:08;16.50;;;15.00;;
57299;SDS011;43148;50.966;18.198;2024-01-11T18:02:55;30.50;;;26.20;;
57299;SDS011;43148;50.966;18.198;2024-01-11T18:12:49;29.40;;;26.20;;
57299;SDS011;43148;50.966;18.198;2024-01-11T18:22:39;25.20;;;22.50;;
57299;SDS011;43148;50.966;18.198;2024-01-11T18:32:22;31.70;;;25.60;;
57299;SDS011;43148;50.966;18.198;2024-01-11T18:42:09;30.80;;;24.50;;
57299;SDS011;43148;50.966;18.198;2024-01-11T18:52:02;24.70;;;22.10;;
57299;SDS011;43148;50.966;18.198;2024-01-11T19:02:02;28.20;;;23.20;;
57299;SDS011;43148;50.966;18.198;2024-01-11T19:11:54;25.90;;;21.40;;
57299;SDS011;43148;50.966;18.198;2024-01-11T19:21:43;19.60;;;17.50;;
57299;SDS011;43148;50.966;18.198;2024-01-11T19:31:30;31.10;;;23.70;;
57299;SDS011;43148;50.966;18.198;2024-01-11T19:41:28;23.30;;;20.80;;
57299;SDS011;43148;50.966;18.198;2024-01-11T19:51:15;28.10;;;21.10;;
57299;SDS011;43148;50.966;18.198;2024-01-11T20:01:14;24.50;;;20.40;;
57299;SDS011;43148;50.966;18.198;2024-01-11T20:11:04;25.10;;;22.40;;
57299;SDS011;43148;50.966;18.198;2024-01-11T20:20:50;23.60;;;21.30;;
57299;SDS011;43148;50.966;18.198;2024-01-11T20:30:35;25.20;;;22.70;;
57299;SDS011;43148;50.966;18.198;2024-01-11T20:47:39;17.80;;;16.30;;
57299;SDS011;43148;50.966;18.198;2024-01-11T20:57:22;23.00;;;20.60;;
57299;SDS011;43148;50.966;18.198;2024-01-11T21:07:05;19.40;;;17.70;;
57299;SDS011;43148;50.966;18.198;2024-01-11T21:16:51;19.90;;;18.00;;
57299;SDS011;43148;50.966;18.198;2024-01-11T21:26:36;20.20;;;18.40;;
57299;SDS011;43148;50.966;18.198;2024-01-11T21:36:29;19.20;;;17.60;;
57299;SDS011;43148;50.966;18.198;2024-01-11T21:46:23;18.90;;;17.00;;
57299;SDS011;43148;50.966;18.198;2024-01-11T21:56:22;10.20;;;9.30;;
57299;SDS011;43148;50.966;18.198;2024-01-11T22:06:08;19.50;;;16.10;;
57299;SDS011;43148;50.966;18.198;2024-01-11T22:15:50;13.30;;;11.50;;
57299;SDS011;43148;50.966;18.198;2024-01-11T22:25:36;14.80;;;13.30;;
57299;SDS011;43148;50.966;18.198;2024-01-11T22:35:20;18.80;;;16.80;;
57299;SDS011;43148;50.966;18.198;2024-01-11T22:45:05;14.50;;;13.30;;
57299;SDS011;43148;50.966;18.198;2024-01-11T22:54:48;16.30;;;14.70;;
57299;SDS011;43148;50.966;18.198;2024-01-11T23:04:30;14.70;;;13.40;;
57299;SDS011;43148;50.966;18.198;2024-01-11T23:14:16;17.30;;;15.80;;
57299;SDS011;43148;50.966;18.198;2024-01-11T23:24:14;16.00;;;14.80;;
57299;SDS011;43148;50.966;18.198;2024-01-11T23:34:09;14.60;;;13.50;;
57299;SDS011;43148;50.966;18.198;2024-01-11T23:43:51;17.00;;;15.50;;
57299;SDS011;43148;50.966;18.198;2024-01-11T23:53:35;17.40;;;15.90;;
